Time;durP1;ratioP1;P1;durP2;ratioP2;P2;SDS_P1;SDS_P2;PMS_P1;PMS_P2;Temp;Humidity;BMP_temperature;BMP_pressure;BME280_temperature;BME280_humidity;BME280_pressure;Samples;Min_cycle;Max_cycle;Signal;HPM_P1;HPM_P2
2021/08/01 00:01:24;;;;;;;3.05;2.72;;;20.20;99.90;;;;;;5038744;28;20223;-75
2021/08/01 00:03:51;;;;;;;2.78;2.50;;;20.20;99.90;;;;;;5040894;28;20253;-76
2021/08/01 00:06:18;;;;;;;2.40;2.20;;;20.20;99.90;;;;;;5054827;28;20508;-75
2021/08/01 00:08:45;;;;;;;2.50;2.30;;;20.20;99.90;;;;;;5073164;28;20202;-75
2021/08/01 00:11:12;;;;;;;2.63;2.33;;;20.20;99.90;;;;;;5079955;28;20666;-75
2021/08/01 00:13:39;;;;;;;2.90;2.70;;;20.20;99.90;;;;;;5059262;28;20206;-75
2021/08/01 00:16:06;;;;;;;2.50;2.30;;;20.20;99.90;;;;;;5054748;28;20226;-75
2021/08/01 00:18:35;;;;;;;2.80;2.60;;;20.20;99.90;;;;;;5058482;28;20207;-75
2021/08/01 00:21:01;;;;;;;2.25;2.05;;;20.10;99.90;;;;;;5056686;28;20212;-75
2021/08/01 00:23:28;;;;;;;3.35;2.50;;;20.30;99.90;;;;;;5056116;28;20218;-76
2021/08/01 00:25:56;;;;;;;2.33;2.13;;;20.10;99.90;;;;;;5063258;28;20202;-75
2021/08/01 00:28:23;;;;;;;2.47;2.28;;;20.30;99.90;;;;;;5074597;28;20230;-75
2021/08/01 00:30:50;;;;;;;2.90;2.60;;;20.10;99.90;;;;;;5063165;28;20199;-75
2021/08/01 00:33:16;;;;;;;2.00;1.90;;;20.00;99.90;;;;;;5038271;28;20204;-75
2021/08/01 00:35:44;;;;;;;2.58;2.35;;;20.00;99.90;;;;;;5040069;28;20278;-74
2021/08/01 00:38:11;;;;;;;2.58;2.25;;;20.00;99.90;;;;;;5062526;28;20199;-75
2021/08/01 00:40:38;;;;;;;2.83;2.63;;;20.00;99.90;;;;;;5057216;28;20200;-75
2021/08/01 00:43:05;;;;;;;3.00;2.65;;;19.90;99.90;;;;;;5054186;28;20199;-75
2021/08/01 00:45:31;;;;;;;2.60;2.40;;;20.00;99.90;;;;;;5054016;28;20624;-75
2021/08/01 00:47:58;;;;;;;2.80;2.60;;;19.90;99.90;;;;;;5055124;28;20555;-75
2021/08/01 00:50:25;;;;;;;2.97;2.67;;;20.00;99.90;;;;;;5055047;28;20541;-75
2021/08/01 00:52:56;;;;;;;3.47;2.97;;;19.90;99.90;;;;;;5054348;28;20212;-75
2021/08/01 00:55:23;;;;;;;3.33;2.88;;;19.90;99.90;;;;;;5055357;28;20187;-75
2021/08/01 00:57:49;;;;;;;4.07;3.03;;;19.90;99.90;;;;;;5059423;28;20273;-75
2021/08/01 01:00:26;;;;;;;3.28;2.97;;;19.90;99.90;;;;;;5053498;28;20199;-75
2021/08/01 01:02:58;;;;;;;3.53;3.22;;;19.90;99.90;;;;;;5053648;28;20183;-75
2021/08/01 01:05:30;;;;;;;4.38;3.55;;;19.90;99.90;;;;;;5070890;28;20191;-76
2021/08/01 01:08:04;;;;;;;4.53;3.28;;;19.80;99.90;;;;;;5072841;28;20194;-75
2021/08/01 01:10:37;;;;;;;3.78;2.95;;;19.70;99.90;;;;;;5073024;28;20190;-75
2021/08/01 01:13:10;;;;;;;4.25;3.35;;;19.80;99.90;;;;;;5073019;28;20615;-75
2021/08/01 01:15:41;;;;;;;4.57;3.08;;;19.80;99.90;;;;;;5063167;28;20202;-75
2021/08/01 01:18:10;;;;;;;3.22;2.92;;;19.80;99.90;;;;;;5063628;28;20203;-75
2021/08/01 01:20:53;;;;;;;4.43;3.40;;;19.80;99.90;;;;;;5055607;28;20200;-75
2021/08/01 01:23:39;;;;;;;3.25;2.65;;;19.80;99.90;;;;;;5056730;28;20233;-75
2021/08/01 01:26:10;;;;;;;3.95;3.22;;;19.70;99.90;;;;;;5065958;28;20277;-75
2021/08/01 01:28:40;;;;;;;5.30;3.00;;;19.70;99.90;;;;;;5059447;28;20238;-75
2021/08/01 01:31:25;;;;;;;4.60;4.03;;;19.60;99.90;;;;;;5054895;28;20204;-76
2021/08/01 01:34:03;;;;;;;5.47;3.47;;;19.70;99.90;;;;;;5055299;28;20654;-75
2021/08/01 01:36:32;;;;;;;3.83;3.15;;;19.70;99.90;;;;;;5068178;28;20211;-75
2021/08/01 01:39:01;;;;;;;3.78;3.40;;;19.70;99.90;;;;;;5067817;28;20210;-76
2021/08/01 01:41:28;;;;;;;3.95;3.15;;;19.70;99.90;;;;;;5055869;28;20238;-75
2021/08/01 01:43:56;;;;;;;3.88;3.20;;;19.70;99.90;;;;;;5045129;28;20259;-76
2021/08/01 01:46:25;;;;;;;3.72;3.40;;;19.60;99.90;;;;;;5050544;28;20245;-75
2021/08/01 01:48:53;;;;;;;3.90;2.95;;;19.60;99.90;;;;;;5062653;28;20213;-75
2021/08/01 01:51:20;;;;;;;3.97;3.58;;;19.70;99.90;;;;;;5077080;28;20523;-76
2021/08/01 01:53:49;;;;;;;3.03;2.72;;;19.60;99.90;;;;;;5077958;28;20202;-75
2021/08/01 01:56:16;;;;;;;5.05;3.13;;;19.60;99.90;;;;;;5074932;28;20209;-75
2021/08/01 01:58:43;;;;;;;4.07;3.45;;;19.60;99.90;;;;;;5082234;28;20659;-75
2021/08/01 02:01:11;;;;;;;4.25;2.90;;;19.60;99.90;;;;;;5064673;28;20191;-75
2021/08/01 02:03:38;;;;;;;3.88;2.70;;;19.60;99.90;;;;;;5058176;28;20207;-76
2021/08/01 02:06:05;;;;;;;4.85;4.00;;;19.60;99.90;;;;;;5057656;28;20208;-76
2021/08/01 02:08:40;;;;;;;3.15;2.85;;;19.60;99.90;;;;;;5058388;28;20192;-75
2021/08/01 02:11:10;;;;;;;2.70;2.50;;;19.60;99.90;;;;;;5044796;28;20191;-75
2021/08/01 02:13:43;;;;;;;3.42;2.60;;;19.50;99.90;;;;;;5048308;28;20195;-75
2021/08/01 02:16:10;;;;;;;3.00;2.70;;;19.50;99.90;;;;;;5054401;28;20179;-73
2021/08/01 02:18:41;;;;;;;3.20;2.90;;;19.50;99.90;;;;;;5068298;28;20226;-73
2021/08/01 02:21:09;;;;;;;4.43;3.25;;;19.50;99.90;;;;;;5074928;28;20215;-73
2021/08/01 02:23:40;;;;;;;3.08;2.75;;;19.50;99.90;;;;;;5059823;28;20258;-73
2021/08/01 02:26:10;;;;;;;3.40;3.00;;;19.50;99.90;;;;;;5067140;28;20204;-73
2021/08/01 02:28:38;;;;;;;3.05;2.83;;;19.50;99.90;;;;;;5074423;28;20280;-73
2021/08/01 02:31:06;;;;;;;3.33;3.03;;;19.50;99.90;;;;;;5074788;28;20210;-73
2021/08/01 02:33:34;;;;;;;3.60;3.30;;;19.50;99.90;;;;;;5044053;28;20302;-73
2021/08/01 02:36:04;;;;;;;3.60;3.30;;;19.50;99.90;;;;;;5058474;28;20199;-74
2021/08/01 02:38:32;;;;;;;2.83;2.53;;;19.40;99.90;;;;;;5064658;28;20246;-73
2021/08/01 02:41:05;;;;;;;3.25;2.95;;;19.40;99.90;;;;;;5055248;28;20602;-73
2021/08/01 02:43:34;;;;;;;2.92;2.72;;;19.40;99.90;;;;;;5055776;28;20183;-73
2021/08/01 02:46:02;;;;;;;3.20;2.90;;;19.40;99.90;;;;;;5055718;28;20207;-74
2021/08/01 02:48:32;;;;;;;3.50;3.20;;;19.40;99.90;;;;;;5065301;28;20191;-73
2021/08/01 02:51:03;;;;;;;3.47;3.17;;;19.30;99.90;;;;;;5074140;28;20195;-75
2021/08/01 02:53:33;;;;;;;3.83;3.33;;;19.40;99.90;;;;;;5058092;28;20211;-76
2021/08/01 02:56:03;;;;;;;3.67;3.38;;;19.30;99.90;;;;;;5057371;28;20183;-75
2021/08/01 02:58:33;;;;;;;3.00;2.63;;;19.30;99.90;;;;;;5057226;28;20229;-74
2021/08/01 03:01:00;;;;;;;3.15;2.33;;;19.30;99.90;;;;;;5069214;28;20203;-76
2021/08/01 03:03:28;;;;;;;3.30;3.00;;;19.30;99.90;;;;;;5049261;28;20200;-76
2021/08/01 03:05:55;;;;;;;2.67;2.47;;;19.30;99.90;;;;;;5054321;28;20188;-76
2021/08/01 03:08:23;;;;;;;3.38;3.08;;;19.30;99.90;;;;;;5063611;28;20191;-76
2021/08/01 03:10:49;;;;;;;2.92;2.72;;;19.20;99.90;;;;;;5058982;28;20195;-76
2021/08/01 03:13:16;;;;;;;3.50;3.10;;;19.20;99.90;;;;;;5052761;28;20202;-76
2021/08/01 03:15:44;;;;;;;3.10;2.83;;;19.20;99.90;;;;;;5035563;28;20218;-76
2021/08/01 03:18:11;;;;;;;3.20;2.60;;;19.30;99.90;;;;;;5069692;28;20655;-76
2021/08/01 03:20:38;;;;;;;2.78;2.58;;;19.30;99.90;;;;;;5061269;28;20191;-77
2021/08/01 03:23:05;;;;;;;3.30;3.00;;;19.20;99.90;;;;;;5075868;28;20202;-76
2021/08/01 03:25:34;;;;;;;3.13;2.70;;;19.20;99.90;;;;;;5035459;28;20208;-76
2021/08/01 03:28:01;;;;;;;4.00;3.15;;;19.20;99.90;;;;;;5044637;28;20311;-76
2021/08/01 03:30:28;;;;;;;3.05;2.75;;;19.20;99.90;;;;;;5067362;28;20199;-76
2021/08/01 03:32:56;;;;;;;4.00;3.67;;;19.20;99.90;;;;;;5055310;28;20233;-76
2021/08/01 03:35:23;;;;;;;2.70;2.50;;;19.20;99.90;;;;;;5055240;28;20207;-76
2021/08/01 03:37:49;;;;;;;3.55;3.03;;;19.10;99.90;;;;;;5060451;28;20214;-76
2021/08/01 03:40:17;;;;;;;2.83;2.63;;;19.10;99.90;;;;;;5053512;28;20204;-76
2021/08/01 03:42:44;;;;;;;3.20;3.00;;;19.10;99.90;;;;;;5060367;28;21661;-75
2021/08/01 03:45:12;;;;;;;3.33;3.03;;;19.10;99.90;;;;;;5054610;28;20202;-76
2021/08/01 03:47:38;;;;;;;5.35;2.90;;;19.10;99.90;;;;;;5046609;28;20277;-75
2021/08/01 03:50:08;;;;;;;3.15;2.95;;;19.00;99.90;;;;;;5058794;28;20195;-75
2021/08/01 03:52:34;;;;;;;3.92;3.63;;;19.00;99.90;;;;;;5069630;28;20245;-75
2021/08/01 03:55:01;;;;;;;4.30;3.40;;;19.10;99.90;;;;;;5066185;28;20579;-75
2021/08/01 03:57:28;;;;;;;5.78;3.10;;;19.00;99.90;;;;;;5044958;28;20223;-76
2021/08/01 03:59:54;;;;;;;3.78;3.38;;;19.00;99.90;;;;;;5033411;28;20211;-76
2021/08/01 04:02:21;;;;;;;2.97;2.75;;;19.00;99.90;;;;;;5033112;28;20208;-76
2021/08/01 04:04:48;;;;;;;3.95;3.65;;;19.10;99.90;;;;;;5047827;28;20203;-76
2021/08/01 04:07:16;;;;;;;3.33;3.03;;;19.00;99.90;;;;;;5046151;28;20607;-76
2021/08/01 04:09:42;;;;;;;3.15;2.85;;;19.00;99.90;;;;;;5043804;28;20570;-77
2021/08/01 04:12:09;;;;;;;3.40;3.10;;;19.00;99.90;;;;;;5068892;28;20203;-75
2021/08/01 04:14:36;;;;;;;2.67;2.47;;;19.00;99.90;;;;;;5066832;28;20202;-75
2021/08/01 04:17:02;;;;;;;3.30;3.00;;;19.00;99.90;;;;;;5048140;28;20203;-75
2021/08/01 04:19:29;;;;;;;2.90;2.63;;;19.10;99.90;;;;;;5057612;28;20574;-76
2021/08/01 04:21:56;;;;;;;6.05;3.50;;;19.10;99.90;;;;;;5041218;28;20640;-75
2021/08/01 04:24:24;;;;;;;3.47;3.17;;;19.00;99.90;;;;;;5044843;28;20659;-75
2021/08/01 04:26:50;;;;;;;4.90;3.05;;;19.00;99.90;;;;;;5053078;28;20214;-75
2021/08/01 04:29:17;;;;;;;3.90;3.40;;;18.30;99.90;;;;;;5066151;28;20195;-75
2021/08/01 04:31:44;;;;;;;2.85;2.65;;;18.90;99.90;;;;;;5059045;28;20210;-75
2021/08/01 04:34:11;;;;;;;5.88;3.08;;;19.00;99.90;;;;;;5044254;28;20220;-75
2021/08/01 04:36:38;;;;;;;4.00;3.70;;;18.90;99.90;;;;;;5034296;28;20940;-75
2021/08/01 04:39:05;;;;;;;2.55;2.35;;;19.10;99.90;;;;;;5052535;28;20218;-75
2021/08/01 04:41:33;;;;;;;2.80;2.60;;;19.00;99.90;;;;;;5056401;28;20196;-75
2021/08/01 04:44:01;;;;;;;3.40;3.10;;;19.00;99.90;;;;;;5051057;28;20200;-75
2021/08/01 04:46:28;;;;;;;3.17;2.90;;;19.00;99.90;;;;;;5042710;28;20207;-76
2021/08/01 04:48:54;;;;;;;3.28;3.08;;;19.00;99.90;;;;;;5057847;28;20202;-75
2021/08/01 04:51:21;;;;;;;2.85;2.60;;;18.90;99.90;;;;;;5051951;28;20203;-76
2021/08/01 04:53:48;;;;;;;2.70;2.50;;;18.90;99.90;;;;;;5063001;28;20208;-76
2021/08/01 04:56:14;;;;;;;3.30;2.97;;;18.90;99.90;;;;;;5050608;28;20196;-76
2021/08/01 04:58:42;;;;;;;3.42;3.13;;;18.90;99.90;;;;;;5051602;28;20231;-76
2021/08/01 05:01:12;;;;;;;6.72;2.72;;;18.90;99.90;;;;;;5052859;28;20218;-76
2021/08/01 05:03:39;;;;;;;3.35;3.08;;;18.80;99.90;;;;;;5041045;28;20215;-76
2021/08/01 05:06:06;;;;;;;3.38;3.08;;;18.90;99.90;;;;;;5045328;28;20545;-76
2021/08/01 05:08:33;;;;;;;2.90;2.53;;;18.80;99.90;;;;;;5041388;28;20216;-75
2021/08/01 05:11:00;;;;;;;3.00;2.80;;;18.90;99.90;;;;;;5051872;28;20204;-75
2021/08/01 05:13:27;;;;;;;3.38;3.08;;;18.90;99.90;;;;;;5059515;28;20196;-75
2021/08/01 05:15:55;;;;;;;4.40;4.00;;;18.90;99.90;;;;;;5048077;28;20207;-75
2021/08/01 05:18:21;;;;;;;4.10;3.78;;;18.90;99.90;;;;;;5057794;28;20610;-75
2021/08/01 05:20:48;;;;;;;4.55;3.85;;;18.90;99.90;;;;;;5057532;28;20203;-75
2021/08/01 05:23:15;;;;;;;4.30;3.85;;;18.90;99.90;;;;;;5055872;28;20535;-75
2021/08/01 05:25:42;;;;;;;2.80;2.60;;;18.90;99.90;;;;;;5049914;28;20200;-75
2021/08/01 05:28:09;;;;;;;4.80;4.40;;;18.90;99.90;;;;;;5058098;28;20236;-75
2021/08/01 05:30:35;;;;;;;3.50;3.20;;;19.30;99.90;;;;;;5047346;28;20200;-76
2021/08/01 05:33:06;;;;;;;5.30;4.85;;;18.90;99.90;;;;;;5040137;28;20195;-73
2021/08/01 05:35:33;;;;;;;5.40;4.85;;;18.90;99.90;;;;;;5075715;28;20191;-73
2021/08/01 05:38:00;;;;;;;4.40;4.10;;;19.00;99.90;;;;;;5088641;28;20219;-73
2021/08/01 05:40:27;;;;;;;5.90;4.65;;;18.90;99.90;;;;;;5072536;28;20253;-73
2021/08/01 05:42:54;;;;;;;7.07;3.92;;;19.00;99.90;;;;;;5050540;28;20202;-73
2021/08/01 05:45:21;;;;;;;4.47;4.07;;;18.60;99.90;;;;;;5046431;28;20200;-72
2021/08/01 05:47:47;;;;;;;9.93;3.95;;;19.10;99.90;;;;;;5072050;28;20195;-73
2021/08/01 05:50:15;;;;;;;3.88;3.58;;;19.10;99.90;;;;;;5048375;28;20207;-73
2021/08/01 05:52:42;;;;;;;3.03;2.70;;;19.20;99.90;;;;;;5055698;28;20286;-73
2021/08/01 05:55:09;;;;;;;4.90;3.95;;;19.30;99.90;;;;;;5064236;28;20665;-72
2021/08/01 05:57:36;;;;;;;3.78;3.45;;;19.30;99.90;;;;;;5056957;28;20222;-72
2021/08/01 06:00:04;;;;;;;3.95;3.65;;;19.30;99.90;;;;;;5062396;28;20223;-72
2021/08/01 06:02:31;;;;;;;3.40;3.10;;;19.40;99.90;;;;;;5045774;28;20203;-72
2021/08/01 06:04:57;;;;;;;2.90;2.70;;;19.40;99.90;;;;;;5054959;28;20211;-73
2021/08/01 06:07:25;;;;;;;3.08;2.88;;;19.40;99.90;;;;;;5061047;28;20195;-71
2021/08/01 06:09:52;;;;;;;3.05;2.75;;;19.40;99.90;;;;;;5062292;28;20195;-72
2021/08/01 06:12:19;;;;;;;3.40;3.10;;;19.50;99.90;;;;;;5044448;28;20200;-72
2021/08/01 06:14:48;;;;;;;3.00;2.50;;;19.50;99.90;;;;;;5047710;28;20637;-72
2021/08/01 06:17:15;;;;;;;3.63;3.33;;;19.50;99.90;;;;;;5056727;28;20218;-73
2021/08/01 06:19:42;;;;;;;3.10;2.78;;;19.90;99.90;;;;;;5081082;28;20222;-73
2021/08/01 06:22:09;;;;;;;3.55;3.10;;;19.60;99.90;;;;;;5082714;28;20253;-73
2021/08/01 06:24:37;;;;;;;5.35;3.00;;;19.60;99.90;;;;;;5066916;28;20218;-73
2021/08/01 06:27:05;;;;;;;2.97;2.72;;;19.60;99.90;;;;;;5054624;28;20194;-73
2021/08/01 06:29:31;;;;;;;3.10;2.80;;;20.40;99.90;;;;;;5066468;28;20184;-73
2021/08/01 06:31:58;;;;;;;2.60;2.40;;;19.80;99.90;;;;;;5064215;28;20199;-73
2021/08/01 06:34:25;;;;;;;2.67;2.47;;;19.90;99.90;;;;;;5068875;28;20200;-73
2021/08/01 06:36:51;;;;;;;3.00;2.80;;;19.90;99.90;;;;;;5067042;28;20200;-73
2021/08/01 06:39:18;;;;;;;3.08;2.78;;;19.90;99.90;;;;;;5067426;28;20245;-73
2021/08/01 06:41:46;;;;;;;3.58;3.28;;;20.00;99.90;;;;;;5059869;28;20199;-73
2021/08/01 06:44:13;;;;;;;3.58;3.28;;;20.00;99.90;;;;;;5066373;28;20206;-73
2021/08/01 06:46:40;;;;;;;3.08;2.80;;;20.00;99.90;;;;;;5073538;28;20225;-73
2021/08/01 06:49:07;;;;;;;5.22;3.40;;;20.00;99.90;;;;;;5089354;28;20205;-73
2021/08/01 06:51:33;;;;;;;2.80;2.50;;;20.10;99.90;;;;;;5066412;28;20196;-73
2021/08/01 06:54:00;;;;;;;3.38;2.85;;;20.10;99.90;;;;;;5049707;28;20653;-73
2021/08/01 06:56:27;;;;;;;3.13;2.92;;;20.00;99.90;;;;;;5053722;28;20200;-73
2021/08/01 06:58:54;;;;;;;3.25;2.30;;;20.00;99.90;;;;;;5049159;28;20219;-73
2021/08/01 07:01:21;;;;;;;3.28;2.97;;;19.90;99.90;;;;;;5050963;28;20207;-73
2021/08/01 07:03:48;;;;;;;2.65;2.45;;;20.00;99.90;;;;;;5046844;28;20211;-73
2021/08/01 07:06:14;;;;;;;3.38;2.95;;;20.00;99.90;;;;;;5042397;28;20211;-73
2021/08/01 07:08:41;;;;;;;3.75;2.92;;;20.10;99.90;;;;;;5045500;28;20200;-73
2021/08/01 07:11:08;;;;;;;3.63;3.33;;;20.20;99.90;;;;;;5047921;28;20725;-73
2021/08/01 07:13:36;;;;;;;4.40;3.40;;;20.20;99.90;;;;;;5050076;28;20200;-73
2021/08/01 07:16:05;;;;;;;3.20;2.90;;;20.30;99.90;;;;;;5049250;28;20200;-73
2021/08/01 07:18:32;;;;;;;4.00;3.15;;;20.40;99.90;;;;;;5049262;28;20224;-73
2021/08/01 07:20:59;;;;;;;4.35;3.97;;;20.50;99.90;;;;;;5047963;28;20200;-73
2021/08/01 07:23:27;;;;;;;5.00;4.60;;;20.50;99.90;;;;;;5050099;28;20207;-73
2021/08/01 07:25:55;;;;;;;3.85;3.10;;;20.50;99.90;;;;;;5062797;28;20245;-73
2021/08/01 07:28:21;;;;;;;5.38;4.90;;;20.70;99.90;;;;;;5047029;28;20232;-73
2021/08/01 07:30:48;;;;;;;5.05;4.55;;;20.50;99.90;;;;;;5053227;28;20204;-73
2021/08/01 07:33:16;;;;;;;6.75;5.50;;;20.50;99.90;;;;;;5061450;28;20253;-73
2021/08/01 07:35:43;;;;;;;6.07;5.57;;;20.40;99.90;;;;;;5041266;28;20385;-73
2021/08/01 07:38:10;;;;;;;5.18;4.68;;;20.50;99.90;;;;;;5045706;28;20200;-73
2021/08/01 07:40:37;;;;;;;7.65;5.43;;;20.50;99.90;;;;;;5069342;28;20229;-74
2021/08/01 07:43:04;;;;;;;6.97;6.30;;;19.20;99.90;;;;;;5077165;28;20229;-73
2021/08/01 07:45:33;;;;;;;5.20;4.80;;;20.50;99.90;;;;;;5049878;28;20208;-74
2021/08/01 07:48:00;;;;;;;5.65;5.25;;;20.60;99.90;;;;;;5067106;28;20241;-73
2021/08/01 07:50:29;;;;;;;5.50;5.00;;;20.80;99.90;;;;;;5077624;28;20206;-73
2021/08/01 07:52:55;;;;;;;4.60;4.30;;;20.90;99.90;;;;;;5065170;28;20211;-73
2021/08/01 07:55:22;;;;;;;5.10;4.70;;;21.20;99.90;;;;;;5075637;28;20210;-73
2021/08/01 07:57:50;;;;;;;5.78;5.07;;;21.40;99.90;;;;;;5048186;28;20358;-73
2021/08/01 08:00:17;;;;;;;6.05;5.30;;;21.50;99.90;;;;;;5040210;28;20247;-73
2021/08/01 08:02:44;;;;;;;4.88;4.47;;;21.70;99.90;;;;;;5056556;28;20200;-72
2021/08/01 08:05:12;;;;;;;5.22;4.72;;;21.80;99.90;;;;;;5047802;28;20203;-73
2021/08/01 08:07:40;;;;;;;5.82;5.32;;;22.00;99.90;;;;;;5051195;28;20254;-73
2021/08/01 08:10:09;;;;;;;4.97;3.80;;;22.10;99.90;;;;;;5058954;28;20226;-72
2021/08/01 08:12:36;;;;;;;5.00;4.60;;;22.20;99.90;;;;;;5041903;28;20455;-72
2021/08/01 08:15:03;;;;;;;5.13;4.63;;;22.20;99.90;;;;;;5045212;28;20462;-72
2021/08/01 08:17:33;;;;;;;4.77;4.47;;;22.20;99.90;;;;;;5037457;28;20200;-72
2021/08/01 08:20:00;;;;;;;4.60;4.20;;;22.30;99.90;;;;;;5037728;28;20489;-72
2021/08/01 08:22:27;;;;;;;5.63;4.80;;;22.50;99.90;;;;;;5039796;28;20482;-72
2021/08/01 08:24:55;;;;;;;5.37;4.97;;;22.60;99.90;;;;;;5052863;28;20496;-73
2021/08/01 08:27:22;;;;;;;5.27;4.77;;;22.70;99.90;;;;;;5059731;28;20545;-73
2021/08/01 08:29:48;;;;;;;4.40;4.00;;;22.80;99.90;;;;;;5058655;28;20468;-73
2021/08/01 08:32:15;;;;;;;4.90;4.13;;;22.80;99.90;;;;;;5050707;28;20484;-74
2021/08/01 08:34:42;;;;;;;5.10;4.60;;;23.00;99.90;;;;;;5063522;28;20825;-73
2021/08/01 08:37:09;;;;;;;4.40;4.00;;;23.10;99.90;;;;;;5051047;28;20465;-73
2021/08/01 08:39:35;;;;;;;4.70;4.30;;;23.10;99.90;;;;;;5061066;28;20499;-72
2021/08/01 08:42:04;;;;;;;4.20;3.80;;;23.20;99.90;;;;;;5061552;28;20507;-73
2021/08/01 08:44:31;;;;;;;4.47;4.17;;;23.20;99.90;;;;;;5040573;28;20467;-74
2021/08/01 08:46:58;;;;;;;4.27;3.87;;;23.10;99.90;;;;;;5049763;28;20496;-73
2021/08/01 08:49:24;;;;;;;5.43;4.97;;;23.10;99.90;;;;;;5064083;28;20464;-73
2021/08/01 08:51:53;;;;;;;5.40;5.00;;;23.00;99.90;;;;;;5052314;28;20474;-73
2021/08/01 08:54:26;;;;;;;5.90;4.60;;;22.80;99.90;;;;;;5058939;28;20480;-73
2021/08/01 08:56:56;;;;;;;5.57;5.10;;;22.70;99.90;;;;;;5057635;28;20534;-73
2021/08/01 08:59:26;;;;;;;5.97;5.47;;;22.60;99.90;;;;;;5075315;28;20503;-73
2021/08/01 09:01:53;;;;;;;6.10;5.60;;;22.50;99.90;;;;;;5056917;28;20200;-72
2021/08/01 09:04:21;;;;;;;5.83;5.43;;;22.50;99.90;;;;;;5035864;28;20513;-73
2021/08/01 09:06:49;;;;;;;5.63;5.13;;;22.40;99.90;;;;;;5045797;28;20470;-74
2021/08/01 09:09:16;;;;;;;6.20;5.70;;;22.40;99.90;;;;;;5069905;28;20872;-72
2021/08/01 09:11:44;;;;;;;5.93;5.53;;;22.40;99.90;;;;;;5063306;28;20214;-73
2021/08/01 09:14:19;;;;;;;5.00;4.50;;;22.40;99.90;;;;;;5037547;28;20200;-73
2021/08/01 09:16:49;;;;;;;5.07;4.55;;;22.30;99.90;;;;;;5046715;28;20461;-73
2021/08/01 09:19:24;;;;;;;5.40;5.00;;;22.30;99.90;;;;;;5058684;28;20215;-72
2021/08/01 09:21:51;;;;;;;5.20;4.70;;;22.20;99.90;;;;;;5055734;28;20574;-73
2021/08/01 09:24:18;;;;;;;5.95;5.53;;;22.20;99.90;;;;;;5053863;28;20470;-72
2021/08/01 09:26:46;;;;;;;5.22;4.82;;;22.10;99.90;;;;;;5050726;28;20203;-73
2021/08/01 09:29:13;;;;;;;4.40;4.10;;;22.00;99.90;;;;;;5055912;28;20622;-73
2021/08/01 09:31:40;;;;;;;4.55;4.15;;;22.10;99.90;;;;;;5052624;28;20207;-73
2021/08/01 09:34:26;;;;;;;5.07;4.57;;;22.10;99.90;;;;;;5041426;28;20202;-74
2021/08/01 09:36:56;;;;;;;7.43;4.10;;;22.20;99.90;;;;;;5046466;28;20219;-73
2021/08/01 09:39:23;;;;;;;4.57;4.18;;;22.30;99.90;;;;;;5042220;28;20473;-74
2021/08/01 09:41:59;;;;;;;5.65;4.70;;;22.40;99.90;;;;;;5039114;28;20268;-73
2021/08/01 09:44:25;;;;;;;5.23;4.77;;;22.50;99.90;;;;;;5041480;28;20199;-73
2021/08/01 09:46:55;;;;;;;4.33;4.03;;;22.60;99.90;;;;;;5041122;28;20454;-73
2021/08/01 09:49:25;;;;;;;4.70;4.30;;;22.70;99.90;;;;;;5050402;28;20446;-74
2021/08/01 09:51:53;;;;;;;5.07;4.57;;;22.80;99.90;;;;;;5056279;28;20818;-74
2021/08/01 09:54:21;;;;;;;4.30;3.90;;;22.80;99.90;;;;;;5059511;28;20445;-75
2021/08/01 09:56:58;;;;;;;4.03;3.63;;;22.90;99.90;;;;;;5046764;28;20451;-75
2021/08/01 09:59:26;;;;;;;4.40;4.00;;;22.90;99.90;;;;;;5059228;28;20470;-74
2021/08/01 10:01:54;;;;;;;5.00;4.20;;;22.80;99.90;;;;;;5064895;28;20964;-74
2021/08/01 10:04:34;;;;;;;4.67;4.20;;;22.80;99.90;;;;;;5068903;28;20873;-75
2021/08/01 10:07:06;;;;;;;4.20;3.80;;;22.70;99.90;;;;;;5064572;28;20450;-74
2021/08/01 10:09:34;;;;;;;6.40;4.43;;;22.70;99.90;;;;;;5059549;28;20446;-74
2021/08/01 10:12:01;;;;;;;4.80;4.40;;;22.70;99.90;;;;;;5049479;28;20450;-74
2021/08/01 10:14:29;;;;;;;5.63;5.13;;;22.70;99.90;;;;;;5067278;28;20446;-74
2021/08/01 10:16:56;;;;;;;5.83;4.90;;;22.80;99.90;;;;;;5051364;28;20446;-74
2021/08/01 10:19:22;;;;;;;5.27;4.77;;;22.80;99.90;;;;;;5055637;28;20478;-74
2021/08/01 10:21:54;;;;;;;5.27;4.87;;;22.80;99.90;;;;;;5088468;28;20441;-74
2021/08/01 10:24:25;;;;;;;5.10;4.70;;;23.00;99.90;;;;;;5049904;28;20431;-74
2021/08/01 10:26:54;;;;;;;5.37;4.90;;;22.90;99.90;;;;;;5048714;28;20434;-74
2021/08/01 10:29:31;;;;;;;7.00;6.10;;;23.00;99.90;;;;;;5053123;28;20453;-74
2021/08/01 10:31:59;;;;;;;5.33;4.93;;;23.00;99.90;;;;;;5068250;28;20433;-74
2021/08/01 10:34:36;;;;;;;5.07;4.67;;;23.00;99.90;;;;;;5071018;28;20487;-75
2021/08/01 10:37:08;;;;;;;5.57;5.10;;;23.00;99.90;;;;;;5070304;28;20421;-74
2021/08/01 10:39:37;;;;;;;5.07;4.67;;;23.00;99.90;;;;;;5067047;28;20479;-75
2021/08/01 10:42:10;;;;;;;5.30;4.80;;;23.00;99.90;;;;;;5073146;28;20433;-74
2021/08/01 10:44:37;;;;;;;5.90;5.40;;;23.00;99.90;;;;;;5077121;28;20446;-74
2021/08/01 10:47:07;;;;;;;5.43;5.03;;;23.00;99.90;;;;;;5052999;28;20438;-74
2021/08/01 10:49:39;;;;;;;4.87;4.47;;;23.00;99.90;;;;;;5049513;28;20442;-74
2021/08/01 10:52:09;;;;;;;5.07;4.70;;;23.00;99.90;;;;;;5052157;28;20438;-74
2021/08/01 10:54:36;;;;;;;4.63;4.10;;;23.00;99.90;;;;;;5048928;28;20450;-75
2021/08/01 10:57:16;;;;;;;4.77;4.47;;;23.00;99.90;;;;;;5047945;28;20451;-74
2021/08/01 11:00:00;;;;;;;5.50;5.00;;;23.10;99.90;;;;;;5051898;28;20545;-75
2021/08/01 11:02:28;;;;;;;5.10;4.53;;;23.20;99.90;;;;;;5053813;28;20478;-74
2021/08/01 11:04:56;;;;;;;5.07;4.63;;;23.10;99.90;;;;;;5060659;28;20815;-73
2021/08/01 11:08:00;;;;;;;5.43;4.70;;;23.10;99.90;;;;;;5043857;28;20451;-73
2021/08/01 11:10:29;;;;;;;4.50;4.10;;;23.10;99.90;;;;;;5050795;28;20458;-74
2021/08/01 11:12:56;;;;;;;4.30;4.00;;;23.10;99.90;;;;;;5062077;28;20541;-75
2021/08/01 11:15:44;;;;;;;4.30;3.90;;;23.10;99.90;;;;;;5067924;28;20445;-75
2021/08/01 11:18:11;;;;;;;4.43;4.10;;;23.10;99.90;;;;;;5086030;28;20437;-74
2021/08/01 11:20:51;;;;;;;6.20;4.80;;;23.10;99.90;;;;;;5089828;28;20469;-75
2021/08/01 11:23:18;;;;;;;4.97;4.57;;;23.00;99.90;;;;;;5054067;28;20943;-74
2021/08/01 11:26:09;;;;;;;4.67;4.10;;;23.10;99.90;;;;;;5065838;28;20465;-74
2021/08/01 11:28:36;;;;;;;4.60;4.20;;;23.00;99.90;;;;;;5070534;28;20470;-75
2021/08/01 11:31:21;;;;;;;4.80;4.40;;;23.10;99.90;;;;;;5055075;28;20481;-75
2021/08/01 11:33:49;;;;;;;4.20;3.80;;;23.10;99.90;;;;;;5068797;28;20472;-74
2021/08/01 11:36:28;;;;;;;4.33;3.93;;;23.10;99.90;;;;;;5050579;28;20451;-74
2021/08/01 11:39:07;;;;;;;4.87;4.20;;;23.10;99.90;;;;;;5059749;28;20449;-74
2021/08/01 11:41:44;;;;;;;4.10;3.80;;;23.10;99.90;;;;;;5069408;28;20422;-75
2021/08/01 11:44:16;;;;;;;6.33;5.30;;;23.10;99.90;;;;;;5069393;28;20531;-75
2021/08/01 11:47:04;;;;;;;5.30;4.50;;;23.10;99.90;;;;;;5062902;28;20469;-74
2021/08/01 11:49:33;;;;;;;4.47;4.10;;;23.10;99.90;;;;;;5062135;28;20468;-74
2021/08/01 11:52:01;;;;;;;4.57;3.93;;;23.10;99.90;;;;;;5071442;28;20445;-74
2021/08/01 11:54:30;;;;;;;3.90;3.60;;;23.10;99.90;;;;;;5053238;28;20451;-74
2021/08/01 11:57:02;;;;;;;4.77;4.37;;;23.10;99.90;;;;;;5063078;28;20438;-75
2021/08/01 11:59:29;;;;;;;4.10;3.80;;;23.00;99.90;;;;;;5062779;28;20530;-74
2021/08/01 12:01:57;;;;;;;4.43;4.03;;;23.00;99.90;;;;;;5059959;28;20438;-74
2021/08/01 12:04:24;;;;;;;4.43;4.03;;;23.00;99.90;;;;;;5083005;28;20436;-74
2021/08/01 12:06:53;;;;;;;4.20;3.90;;;23.00;99.90;;;;;;5062386;28;20461;-74
2021/08/01 12:09:21;;;;;;;3.93;3.63;;;23.00;99.90;;;;;;5068901;28;20450;-74
2021/08/01 12:11:49;;;;;;;4.13;3.83;;;23.00;99.90;;;;;;5070625;28;20461;-74
2021/08/01 12:14:18;;;;;;;4.70;4.10;;;23.00;99.90;;;;;;5069343;28;20442;-74
2021/08/01 12:16:55;;;;;;;7.63;4.03;;;23.00;99.90;;;;;;5065291;28;20458;-74
2021/08/01 12:19:24;;;;;;;4.47;4.07;;;23.00;99.90;;;;;;5051903;28;20453;-75
2021/08/01 12:21:54;;;;;;;5.90;4.43;;;23.00;99.90;;;;;;5068521;28;20449;-75
2021/08/01 12:24:43;;;;;;;4.20;3.80;;;23.00;99.90;;;;;;5069122;28;20446;-75
2021/08/01 12:27:12;;;;;;;4.63;4.23;;;23.00;99.90;;;;;;5065311;28;20481;-74
2021/08/01 12:29:42;;;;;;;3.90;3.60;;;22.80;99.90;;;;;;5061070;28;20442;-74
2021/08/01 12:32:29;;;;;;;4.17;3.83;;;23.00;99.90;;;;;;5048913;28;20438;-74
2021/08/01 12:35:08;;;;;;;4.33;4.03;;;22.90;99.90;;;;;;5074381;28;20449;-75
2021/08/01 12:37:48;;;;;;;4.27;3.97;;;23.00;99.90;;;;;;5059887;28;20454;-74
2021/08/01 12:40:25;;;;;;;4.20;3.80;;;23.00;99.90;;;;;;5062966;28;20505;-78
2021/08/01 12:42:54;;;;;;;6.00;4.27;;;23.10;99.90;;;;;;5068836;28;20831;-78
2021/08/01 12:45:29;;;;;;;5.13;4.63;;;23.00;99.90;;;;;;5055716;28;20442;-79
2021/08/01 12:47:56;;;;;;;5.50;4.33;;;23.00;99.90;;;;;;5068934;28;20910;-79
2021/08/01 12:50:23;;;;;;;4.70;4.37;;;23.00;99.90;;;;;;5075374;28;20785;-78
2021/08/01 12:52:50;;;;;;;4.63;4.23;;;23.00;99.90;;;;;;5049362;28;20454;-78
2021/08/01 12:55:17;;;;;;;4.77;4.37;;;22.90;99.90;;;;;;5035219;28;20454;-78
2021/08/01 12:58:01;;;;;;;5.17;4.77;;;23.00;99.90;;;;;;5058635;28;20468;-78